createdAt,value
2019-01-08T00:00:19.927Z,26.03
2019-01-08T00:02:51.055Z,25.83
2019-01-08T00:05:22.407Z,25.10
2019-01-08T00:07:54.857Z,23.63
2019-01-08T00:10:26.135Z,23.97
2019-01-08T00:12:57.170Z,23.23
2019-01-08T00:15:29.733Z,20.33
2019-01-08T00:18:01.228Z,17.57
2019-01-08T00:20:33.291Z,15.90
2019-01-08T00:23:03.074Z,13.47
2019-01-08T00:25:34.309Z,13.83
2019-01-08T00:28:05.413Z,16.53
2019-01-08T00:30:36.446Z,17.20
2019-01-08T00:33:06.973Z,22.87
2019-01-08T00:35:38.126Z,14.43
2019-01-08T00:38:11.037Z,14.43
2019-01-08T00:40:42.245Z,13.77
2019-01-08T00:43:15.092Z,15.07
2019-01-08T00:45:48.598Z,18.40
2019-01-08T00:48:19.114Z,18.00
2019-01-08T00:50:50.292Z,16.87
2019-01-08T00:53:21.487Z,17.70
2019-01-08T00:55:53.801Z,21.17
2019-01-08T00:58:24.977Z,13.50
2019-01-08T01:00:56.183Z,14.53
2019-01-08T01:03:27.385Z,15.87
2019-01-08T01:05:59.364Z,14.70
2019-01-08T01:08:31.333Z,15.87
2019-01-08T01:11:05.118Z,15.73
2019-01-08T01:13:37.263Z,19.03
2019-01-08T01:16:08.397Z,21.40
2019-01-08T01:18:39.534Z,19.40
2019-01-08T01:21:10.997Z,20.83
2019-01-08T01:23:43.125Z,21.60
2019-01-08T01:26:14.340Z,22.77
2019-01-08T01:28:47.147Z,16.53
2019-01-08T01:31:18.249Z,20.97
2019-01-08T01:33:52.039Z,20.20
2019-01-08T01:36:23.243Z,12.97
2019-01-08T01:38:54.497Z,21.23
2019-01-08T01:41:24.686Z,19.37
2019-01-08T01:43:56.139Z,24.03
2019-01-08T01:46:29.076Z,16.33
2019-01-08T01:49:00.279Z,18.60
2019-01-08T01:51:30.422Z,18.57
2019-01-08T01:54:01.651Z,23.90
2019-01-08T01:56:34.144Z,24.07
2019-01-08T01:59:08.667Z,29.30
2019-01-08T02:01:39.512Z,19.33
2019-01-08T02:04:10.649Z,25.23
2019-01-08T02:06:41.786Z,25.27
2019-01-08T02:09:12.925Z,23.80
2019-01-08T02:11:44.061Z,29.17
2019-01-08T02:14:15.243Z,22.77
2019-01-08T02:16:46.335Z,21.90
2019-01-08T02:19:18.213Z,25.47
2019-01-08T02:21:49.272Z,28.00
2019-01-08T02:24:21.462Z,29.80
2019-01-08T02:26:52.657Z,26.97
2019-01-08T02:29:23.726Z,26.80
2019-01-08T02:31:55.173Z,27.47
2019-01-08T02:34:24.952Z,21.47
2019-01-08T02:36:56.058Z,19.73
2019-01-08T02:39:26.253Z,24.70
2019-01-08T02:41:56.974Z,21.40
2019-01-08T02:44:27.444Z,17.80
2019-01-08T02:46:57.690Z,21.83
2019-01-08T02:49:29.165Z,29.50
2019-01-08T02:51:59.946Z,22.83
2019-01-08T02:54:30.913Z,19.90
2019-01-08T02:57:02.990Z,24.30
2019-01-08T02:59:37.287Z,22.53
2019-01-08T03:02:09.653Z,23.20
2019-01-08T03:04:42.250Z,23.83
2019-01-08T03:07:13.459Z,19.43
2019-01-08T03:09:45.916Z,21.60
2019-01-08T03:12:18.483Z,23.73
2019-01-08T03:14:50.330Z,25.20
2019-01-08T03:17:19.911Z,20.47
2019-01-08T03:19:51.060Z,21.87
2019-01-08T03:22:22.195Z,28.43
2019-01-08T03:24:51.963Z,20.50
2019-01-08T03:27:22.149Z,17.20
2019-01-08T03:29:54.319Z,20.20
2019-01-08T03:32:25.984Z,19.33
2019-01-08T03:34:58.923Z,19.47
2019-01-08T03:37:30.896Z,20.60
2019-01-08T03:40:03.458Z,22.40
2019-01-08T03:42:34.082Z,22.20
2019-01-08T03:45:05.209Z,24.80
2019-01-08T03:47:36.905Z,29.03
2019-01-08T03:50:10.453Z,27.07
2019-01-08T03:52:40.722Z,34.13
2019-01-08T03:55:11.854Z,41.73
2019-01-08T03:57:48.266Z,40.27
2019-01-08T04:00:20.877Z,41.97
2019-01-08T04:02:53.104Z,47.97
2019-01-08T04:05:23.857Z,38.60
2019-01-08T04:07:55.090Z,29.53
2019-01-08T04:10:26.289Z,38.53
2019-01-08T04:12:57.426Z,33.07
2019-01-08T04:15:28.563Z,37.13
2019-01-08T04:17:59.749Z,41.27
2019-01-08T04:20:30.982Z,50.73
2019-01-08T04:23:01.185Z,32.43
2019-01-08T04:25:31.334Z,35.70
2019-01-08T04:28:03.654Z,39.47
2019-01-08T04:30:33.837Z,37.70
2019-01-08T04:33:04.129Z,35.33
2019-01-08T04:35:35.193Z,38.63
2019-01-08T04:38:05.491Z,42.53
2019-01-08T04:40:35.767Z,48.60
2019-01-08T04:43:06.823Z,41.57
2019-01-08T04:45:39.385Z,36.00
2019-01-08T04:48:11.287Z,28.43
2019-01-08T04:50:41.378Z,28.73
2019-01-08T04:53:12.841Z,35.43
2019-01-08T04:55:45.016Z,38.37
2019-01-08T04:58:17.578Z,40.43
2019-01-08T05:00:49.654Z,33.30
2019-01-08T05:03:20.177Z,26.97
2019-01-08T05:05:50.372Z,24.03
2019-01-08T05:08:24.453Z,23.97
2019-01-08T05:10:55.557Z,22.03
2019-01-08T05:13:26.695Z,19.70
2019-01-08T05:15:57.217Z,25.73
2019-01-08T05:18:28.057Z,17.90
2019-01-08T05:20:58.342Z,23.23
2019-01-08T05:23:29.465Z,27.10
2019-01-08T05:26:00.535Z,25.40
2019-01-08T05:28:30.296Z,29.03
2019-01-08T05:31:00.402Z,28.23
2019-01-08T05:33:32.394Z,25.60
2019-01-08T05:36:02.590Z,24.97
2019-01-08T05:38:32.850Z,31.40
2019-01-08T05:41:04.037Z,24.20
2019-01-08T05:43:34.289Z,18.67
2019-01-08T05:46:04.577Z,23.83
2019-01-08T05:48:36.054Z,27.17
2019-01-08T05:51:06.248Z,28.03
2019-01-08T05:53:40.321Z,22.27
2019-01-08T05:56:10.494Z,20.67
2019-01-08T05:58:41.946Z,15.57
2019-01-08T06:01:12.102Z,12.67
2019-01-08T06:03:42.341Z,15.07
2019-01-08T06:06:12.241Z,12.80
2019-01-08T06:08:43.249Z,11.00
2019-01-08T06:11:14.424Z,14.53
2019-01-08T06:13:44.718Z,9.37
2019-01-08T06:16:15.001Z,11.93
2019-01-08T06:18:48.669Z,7.37
2019-01-08T06:21:20.771Z,15.23
2019-01-08T06:23:50.498Z,12.40
2019-01-08T06:26:22.367Z,18.57
2019-01-08T06:28:52.653Z,14.80
2019-01-08T06:31:22.727Z,19.73
2019-01-08T06:33:54.779Z,21.17
2019-01-08T06:36:27.698Z,16.93
2019-01-08T06:38:59.015Z,19.20
2019-01-08T06:41:30.149Z,14.37
2019-01-08T06:44:01.322Z,16.60
2019-01-08T06:46:32.494Z,20.60
2019-01-08T06:49:04.918Z,16.13
2019-01-08T06:51:35.301Z,16.70
2019-01-08T06:54:06.525Z,14.20
2019-01-08T06:56:38.496Z,5.47
2019-01-08T06:59:11.341Z,11.87
2019-01-08T07:01:41.001Z,13.50
2019-01-08T07:04:14.030Z,13.10
2019-01-08T07:06:45.171Z,10.60
2019-01-08T07:09:16.310Z,15.07
2019-01-08T07:11:47.338Z,17.30
2019-01-08T07:14:18.442Z,15.17
2019-01-08T07:16:53.483Z,20.57
2019-01-08T07:19:24.685Z,17.20
2019-01-08T07:21:56.145Z,19.00
2019-01-08T07:24:28.886Z,23.60
2019-01-08T07:26:59.149Z,25.40
2019-01-08T07:29:30.273Z,25.57
2019-01-08T07:32:02.287Z,18.10
2019-01-08T07:34:33.490Z,18.97
2019-01-08T07:37:04.233Z,28.00
2019-01-08T07:39:35.274Z,20.03
2019-01-08T07:42:08.373Z,24.77
2019-01-08T07:44:40.695Z,22.17
2019-01-08T07:47:11.929Z,26.87
2019-01-08T07:49:42.146Z,30.53
2019-01-08T07:52:13.378Z,30.73
2019-01-08T07:54:44.619Z,36.90
2019-01-08T07:57:15.117Z,27.93
2019-01-08T07:59:46.251Z,24.57
2019-01-08T08:02:17.390Z,20.47
2019-01-08T08:04:48.485Z,20.30
2019-01-08T08:07:18.906Z,19.80
2019-01-08T08:09:49.206Z,24.33
2019-01-08T08:12:20.135Z,17.40
2019-01-08T08:14:51.294Z,19.57
2019-01-08T08:17:22.399Z,12.17
2019-01-08T08:22:44.726Z,23.23
2019-01-08T08:25:15.781Z,18.43
2019-01-08T08:27:45.966Z,18.57
2019-01-08T08:30:17.093Z,17.70
2019-01-08T08:32:48.183Z,17.80
2019-01-08T08:35:20.301Z,19.70
2019-01-08T08:37:51.349Z,21.43
2019-01-08T08:40:21.670Z,24.07
2019-01-08T08:42:52.996Z,19.70
2019-01-08T08:45:24.159Z,25.37
2019-01-08T08:47:54.532Z,20.07
2019-01-08T08:50:26.878Z,28.43
2019-01-08T08:52:57.945Z,19.77
2019-01-08T08:55:28.262Z,32.10
2019-01-08T08:57:59.314Z,25.50
2019-01-08T09:00:29.582Z,18.43
2019-01-08T09:03:02.479Z,20.33
2019-01-08T09:05:35.053Z,20.03
2019-01-08T09:08:06.164Z,19.90
2019-01-08T09:10:38.017Z,24.07
2019-01-08T09:13:08.202Z,24.87
2019-01-08T09:15:43.329Z,19.43
2019-01-08T09:18:14.575Z,17.23
2019-01-08T09:20:45.804Z,20.57
2019-01-08T09:23:19.355Z,19.63
2019-01-08T09:25:51.326Z,18.70
2019-01-08T09:28:21.445Z,30.80
2019-01-08T09:30:52.255Z,22.17
2019-01-08T09:33:23.262Z,23.70
2019-01-08T09:35:54.863Z,24.40
2019-01-08T09:38:24.913Z,22.57
2019-01-08T09:40:57.186Z,20.93
2019-01-08T09:43:28.147Z,25.90
2019-01-08T09:45:58.422Z,25.07
2019-01-08T09:48:29.965Z,26.10
2019-01-08T09:51:03.011Z,23.80
2019-01-08T09:53:33.217Z,26.10
2019-01-08T09:56:04.337Z,20.77
2019-01-08T09:58:34.540Z,19.63
2019-01-08T10:01:08.080Z,28.20
2019-01-08T10:03:39.216Z,27.27
2019-01-08T10:06:08.979Z,25.33
2019-01-08T10:08:39.167Z,26.90
2019-01-08T10:11:09.316Z,27.90
2019-01-08T10:13:39.045Z,27.37
2019-01-08T10:16:10.201Z,27.77
2019-01-08T10:18:40.373Z,35.47
2019-01-08T10:21:13.006Z,24.43
2019-01-08T10:23:43.061Z,27.53
2019-01-08T10:26:13.269Z,33.57
2019-01-08T10:28:43.454Z,30.10
2019-01-08T10:31:14.685Z,31.17
2019-01-08T10:33:45.858Z,27.40
2019-01-08T10:36:18.150Z,26.97
2019-01-08T10:38:50.606Z,35.80
2019-01-08T10:41:21.122Z,34.53
2019-01-08T10:43:52.186Z,25.97
2019-01-08T10:46:23.228Z,29.03
2019-01-08T10:48:55.602Z,34.30
2019-01-08T10:51:25.761Z,30.17
2019-01-08T10:53:58.606Z,27.27
2019-01-08T10:56:28.905Z,25.83
2019-01-08T10:59:07.397Z,30.57
2019-01-08T11:01:31.601Z,24.40
2019-01-08T11:04:02.413Z,26.83
2019-01-08T11:06:33.453Z,23.83
2019-01-08T11:09:05.194Z,26.50
2019-01-08T11:11:36.354Z,21.40
2019-01-08T11:14:08.430Z,25.97
2019-01-08T11:16:41.448Z,24.03
2019-01-08T11:19:12.590Z,29.27
2019-01-08T11:21:43.721Z,29.13
2019-01-08T11:24:14.321Z,28.90
2019-01-08T11:26:45.579Z,23.77
2019-01-08T11:29:17.369Z,24.83
2019-01-08T11:31:49.198Z,22.97
2019-01-08T11:34:19.485Z,26.03
2019-01-08T11:36:51.829Z,23.30
2019-01-08T11:39:22.022Z,21.80
2019-01-08T11:41:54.165Z,21.20
2019-01-08T11:44:24.528Z,21.43
2019-01-08T11:46:54.743Z,20.80
2019-01-08T11:49:27.552Z,18.97
2019-01-08T11:51:59.485Z,21.17
2019-01-08T11:54:30.554Z,25.50
2019-01-08T11:57:01.621Z,21.60
2019-01-08T11:59:32.731Z,23.40
2019-01-08T12:02:02.977Z,19.77
2019-01-08T12:04:33.238Z,15.23
2019-01-08T12:09:54.538Z,11.97
2019-01-08T12:12:25.909Z,11.70
2019-01-08T12:14:57.095Z,16.13
2019-01-08T12:17:28.261Z,13.60
2019-01-08T12:20:00.310Z,17.60
2019-01-08T12:22:31.441Z,22.43
2019-01-08T12:25:03.102Z,20.53
2019-01-08T12:30:24.517Z,33.93
2019-01-08T12:32:55.938Z,27.30
2019-01-08T12:35:26.457Z,22.87
2019-01-08T12:37:58.669Z,28.07
2019-01-08T12:40:28.942Z,23.60
2019-01-08T12:43:00.072Z,23.57
2019-01-08T12:45:31.239Z,27.97
2019-01-08T12:48:02.491Z,34.27
2019-01-08T12:50:33.582Z,21.97
2019-01-08T12:53:04.654Z,23.30
2019-01-08T12:55:35.861Z,24.50
2019-01-08T12:58:06.994Z,26.60
2019-01-08T13:00:38.515Z,28.80
2019-01-08T13:03:12.915Z,26.93
2019-01-08T13:05:44.913Z,22.53
2019-01-08T13:08:17.481Z,26.07
2019-01-08T13:10:48.333Z,17.33
2019-01-08T13:13:19.454Z,30.80
2019-01-08T13:15:50.594Z,23.73
2019-01-08T13:18:21.118Z,19.57
2019-01-08T13:20:51.977Z,21.93
2019-01-08T13:23:24.070Z,22.10
2019-01-08T13:25:55.288Z,23.03
2019-01-08T13:28:28.282Z,31.03
2019-01-08T13:30:58.469Z,20.63
2019-01-08T13:33:29.702Z,24.37
2019-01-08T13:35:59.383Z,22.33
2019-01-08T13:38:31.701Z,22.97
2019-01-08T13:41:01.857Z,23.77
2019-01-08T13:43:33.033Z,18.83
2019-01-08T13:46:05.590Z,22.10
2019-01-08T13:48:35.625Z,18.23
2019-01-08T13:51:07.870Z,18.83
2019-01-08T13:56:30.922Z,11.43
2019-01-08T13:59:04.613Z,8.87
2019-01-08T14:01:36.990Z,13.77
2019-01-08T14:04:07.165Z,14.60
2019-01-08T14:06:37.067Z,16.67
2019-01-08T14:09:08.098Z,11.37
2019-01-08T14:11:40.493Z,14.63
2019-01-08T14:14:11.298Z,13.07
2019-01-08T14:16:42.250Z,17.47
2019-01-08T14:19:12.851Z,23.10
2019-01-08T14:21:43.859Z,18.87
2019-01-08T14:24:14.489Z,19.37
2019-01-08T14:26:48.009Z,21.47
2019-01-08T14:29:19.150Z,20.57
2019-01-08T14:31:50.426Z,16.07
2019-01-08T14:34:21.469Z,17.17
2019-01-08T14:36:55.419Z,11.67
2019-01-08T14:39:26.446Z,14.07
2019-01-08T14:41:59.295Z,18.13
2019-01-08T14:44:30.346Z,17.03
2019-01-08T14:47:03.173Z,12.23
2019-01-08T14:49:36.140Z,14.33
2019-01-08T14:52:06.093Z,15.87
2019-01-08T14:54:37.346Z,12.13
2019-01-08T14:57:09.715Z,16.13
2019-01-08T14:59:40.730Z,12.87
2019-01-08T15:02:10.637Z,15.33
2019-01-08T15:04:40.522Z,12.13
2019-01-08T15:07:10.598Z,19.97
2019-01-08T15:09:41.721Z,20.37
2019-01-08T15:12:12.862Z,16.17
2019-01-08T15:14:43.619Z,15.90
2019-01-08T15:17:16.178Z,15.23
2019-01-08T15:19:47.157Z,20.70
2019-01-08T15:22:17.151Z,18.63
2019-01-08T15:24:47.908Z,19.30
2019-01-08T15:27:21.286Z,18.37
2019-01-08T15:29:51.521Z,10.93
2019-01-08T15:32:21.382Z,19.93
2019-01-08T15:34:51.494Z,26.93
2019-01-08T15:37:23.602Z,24.43
2019-01-08T15:39:53.307Z,18.50
2019-01-08T15:42:25.053Z,21.23
2019-01-08T15:44:57.902Z,17.80
2019-01-08T15:47:32.329Z,17.73
2019-01-08T15:50:03.811Z,19.63
2019-01-08T15:52:34.915Z,17.20
2019-01-08T15:55:06.925Z,18.83
2019-01-08T15:57:37.654Z,20.73
2019-01-08T16:00:10.359Z,26.23
2019-01-08T16:02:42.893Z,14.47
2019-01-08T16:05:15.121Z,15.87
2019-01-08T16:07:45.516Z,23.50
2019-01-08T16:10:18.029Z,16.93
2019-01-08T16:12:50.948Z,17.93
2019-01-08T16:15:21.791Z,23.47
2019-01-08T16:17:51.960Z,23.27
2019-01-08T16:20:24.776Z,14.50
2019-01-08T16:22:57.393Z,20.77
2019-01-08T16:25:28.472Z,18.60
2019-01-08T16:27:59.502Z,20.87
2019-01-08T16:30:30.602Z,20.43
2019-01-08T16:33:01.835Z,19.40
2019-01-08T16:35:32.617Z,21.23
2019-01-08T16:38:03.557Z,25.50
2019-01-08T16:40:35.533Z,20.33
2019-01-08T16:43:06.655Z,16.70
2019-01-08T16:45:37.775Z,17.90
2019-01-08T16:48:07.931Z,19.97
2019-01-08T16:50:39.527Z,18.40
2019-01-08T16:53:11.422Z,14.57
2019-01-08T16:55:43.309Z,20.80
2019-01-08T16:58:15.280Z,20.37
2019-01-08T17:00:45.335Z,21.83
2019-01-08T17:03:24.507Z,18.10
2019-01-08T17:05:48.338Z,11.07
2019-01-08T17:08:18.537Z,17.63
2019-01-08T17:10:52.617Z,18.33
2019-01-08T17:13:23.827Z,18.27
2019-01-08T17:15:53.781Z,15.80
2019-01-08T17:18:24.846Z,21.53
2019-01-08T17:20:56.959Z,19.40
2019-01-08T17:23:28.038Z,16.80
2019-01-08T17:25:59.112Z,20.30
2019-01-08T17:28:29.297Z,19.80
2019-01-08T17:30:59.504Z,22.17
2019-01-08T17:33:33.973Z,22.37
2019-01-08T17:36:03.369Z,20.50
2019-01-08T17:38:33.538Z,19.10
2019-01-08T17:41:04.565Z,16.40
2019-01-08T17:43:35.943Z,17.30
2019-01-08T17:46:06.221Z,25.00
2019-01-08T17:48:37.286Z,20.03
2019-01-08T17:51:09.349Z,27.87
2019-01-08T17:53:40.554Z,20.47
2019-01-08T17:56:10.750Z,15.77
2019-01-08T17:58:43.906Z,21.40
2019-01-08T18:01:20.893Z,19.23
2019-01-08T18:03:51.055Z,25.27
2019-01-08T18:06:20.738Z,16.43
2019-01-08T18:08:51.863Z,21.63
2019-01-08T18:11:22.076Z,17.23
2019-01-08T18:13:54.949Z,18.53
2019-01-08T18:16:27.721Z,22.30
2019-01-08T18:18:57.925Z,24.47
2019-01-08T18:21:30.056Z,23.87
2019-01-08T18:24:01.197Z,17.70
2019-01-08T18:26:31.404Z,19.60
2019-01-08T18:29:02.557Z,19.33
2019-01-08T18:31:34.009Z,19.90
2019-01-08T18:34:06.406Z,21.13
2019-01-08T18:36:37.973Z,21.50
2019-01-08T18:39:09.160Z,17.03
2019-01-08T18:41:40.201Z,21.60
2019-01-08T18:44:11.350Z,19.13
2019-01-08T18:46:44.558Z,18.20
2019-01-08T18:49:15.706Z,19.20
2019-01-08T18:51:46.726Z,24.70
2019-01-08T18:54:17.171Z,20.33
2019-01-08T18:56:47.870Z,26.90
2019-01-08T18:59:19.298Z,22.53
2019-01-08T19:01:51.206Z,23.13
2019-01-08T19:04:24.166Z,21.93
2019-01-08T19:06:54.059Z,15.67
2019-01-08T19:09:27.681Z,17.73
2019-01-08T19:11:58.477Z,14.53
2019-01-08T19:14:31.457Z,10.10
2019-01-08T19:17:02.226Z,12.93
2019-01-08T19:19:34.662Z,8.57
2019-01-08T19:22:06.406Z,11.57
2019-01-08T19:24:37.299Z,22.00
2019-01-08T19:27:09.680Z,15.07
2019-01-08T19:29:39.658Z,16.30
2019-01-08T19:32:10.799Z,19.03
2019-01-08T19:34:40.561Z,30.10
2019-01-08T19:37:10.766Z,21.83
2019-01-08T19:39:41.769Z,27.67
2019-01-08T19:42:12.802Z,29.33
2019-01-08T19:44:44.477Z,22.57
2019-01-08T19:47:15.602Z,27.67
2019-01-08T19:49:46.682Z,29.10
2019-01-08T19:52:17.397Z,20.10
2019-01-08T19:54:48.015Z,22.70
2019-01-08T19:57:21.286Z,31.90
2019-01-08T19:59:51.528Z,26.57
2019-01-08T20:02:21.299Z,22.67
2019-01-08T20:04:52.143Z,30.60
2019-01-08T20:07:21.889Z,27.23
2019-01-08T20:09:53.774Z,20.33
2019-01-08T20:12:24.877Z,23.33
2019-01-08T20:14:55.717Z,15.87
2019-01-08T20:17:25.825Z,28.27
2019-01-08T20:19:56.981Z,22.37
2019-01-08T20:22:28.626Z,22.13
2019-01-08T20:25:01.098Z,17.27
2019-01-08T20:27:32.570Z,76.07
2019-01-08T20:30:03.434Z,21.90
2019-01-08T20:32:33.266Z,20.33
2019-01-08T20:35:03.149Z,14.23
2019-01-08T20:37:35.322Z,15.63
2019-01-08T20:40:05.931Z,15.23
2019-01-08T20:42:37.386Z,16.50
2019-01-08T20:45:08.521Z,18.70
2019-01-08T20:47:42.571Z,13.73
2019-01-08T20:50:13.855Z,23.50
2019-01-08T20:52:44.472Z,16.10
2019-01-08T20:55:14.233Z,15.10
2019-01-08T20:57:44.019Z,22.07
2019-01-08T21:00:14.511Z,19.80
2019-01-08T21:02:45.670Z,16.97
2019-01-08T21:05:15.552Z,16.80
2019-01-08T21:07:46.754Z,25.40
2019-01-08T21:10:17.523Z,18.67
2019-01-08T21:12:49.870Z,15.77
2019-01-08T21:15:21.325Z,17.07
2019-01-08T21:17:52.903Z,16.63
2019-01-08T21:20:24.874Z,14.03
2019-01-08T21:22:55.978Z,15.73
2019-01-08T21:25:25.441Z,18.03
2019-01-08T21:27:55.356Z,18.27
2019-01-08T21:30:26.066Z,18.77
2019-01-08T21:32:57.011Z,13.47
2019-01-08T21:35:28.057Z,12.50
2019-01-08T21:37:57.801Z,14.40
2019-01-08T21:40:29.366Z,12.90
2019-01-08T21:43:00.477Z,12.53
2019-01-08T21:45:31.765Z,15.53
2019-01-08T21:48:02.017Z,18.10
2019-01-08T21:50:33.160Z,18.00
2019-01-08T21:53:04.410Z,16.23
2019-01-08T21:55:38.533Z,12.20
2019-01-08T21:58:09.358Z,14.30
2019-01-08T22:00:39.078Z,13.07
2019-01-08T22:03:10.094Z,14.83
2019-01-08T22:05:41.710Z,13.13
2019-01-08T22:08:12.718Z,15.90
2019-01-08T22:10:42.594Z,18.77
2019-01-08T22:13:13.540Z,14.30
2019-01-08T22:15:43.706Z,12.63
2019-01-08T22:18:14.561Z,17.93
2019-01-08T22:20:45.172Z,12.03
2019-01-08T22:23:16.055Z,18.00
2019-01-08T22:25:46.069Z,15.20
2019-01-08T22:28:16.913Z,17.23
2019-01-08T22:30:47.898Z,15.17
2019-01-08T22:33:22.920Z,15.33
2019-01-08T22:35:54.249Z,17.50
2019-01-08T22:38:26.021Z,20.30
2019-01-08T22:40:56.773Z,17.20
2019-01-08T22:43:27.473Z,14.57
2019-01-08T22:45:58.215Z,15.53
2019-01-08T22:48:30.606Z,9.83
2019-01-08T22:51:01.286Z,14.17
2019-01-08T22:53:33.709Z,19.10
2019-01-08T22:56:03.686Z,12.80
2019-01-08T22:58:34.718Z,14.30
2019-01-08T23:01:07.462Z,12.07
2019-01-08T23:03:38.369Z,9.00
2019-01-08T23:06:08.741Z,13.63
2019-01-08T23:08:39.765Z,11.27
2019-01-08T23:11:09.549Z,9.83
2019-01-08T23:13:39.747Z,8.60
2019-01-08T23:16:11.689Z,9.77
2019-01-08T23:18:42.457Z,8.73
2019-01-08T23:21:12.228Z,10.63
2019-01-08T23:23:44.940Z,13.37
2019-01-08T23:26:16.717Z,10.63
2019-01-08T23:28:47.641Z,12.00
2019-01-08T23:31:18.962Z,8.57
2019-01-08T23:33:49.813Z,9.33
2019-01-08T23:36:20.909Z,11.53
2019-01-08T23:39:01.657Z,10.13
2019-01-08T23:41:31.842Z,13.50
2019-01-08T23:44:04.238Z,8.93
2019-01-08T23:46:35.178Z,13.90
2019-01-08T23:49:05.269Z,12.37
2019-01-08T23:51:36.545Z,10.43
2019-01-08T23:54:06.704Z,13.77
2019-01-08T23:56:37.834Z,10.93
2019-01-08T23:59:08.030Z,9.80
